createdAt,value
2023-04-18T00:04:34.622Z,102291.28
2023-04-18T00:09:40.725Z,102287.08
2023-04-18T00:14:46.357Z,102303.12
2023-04-18T00:19:52.799Z,102295.39
2023-04-18T00:24:58.463Z,102298.64
2023-04-18T00:30:04.344Z,102296.02
2023-04-18T00:35:10.463Z,102295.25
2023-04-18T00:40:16.823Z,102293.28
2023-04-18T00:45:22.497Z,102295.20
2023-04-18T00:50:28.279Z,102303.50
2023-04-18T00:55:33.923Z,102296.44
2023-04-18T01:00:41.062Z,102291.86
2023-04-18T01:05:46.827Z,102294.39
2023-04-18T01:10:52.721Z,102280.87
2023-04-18T01:15:59.065Z,102291.95
2023-04-18T01:22:01.418Z,102288.59
2023-04-18T01:27:16.552Z,102291.88
2023-04-18T01:32:22.225Z,102295.34
2023-04-18T01:37:27.743Z,102294.02
2023-04-18T01:42:33.423Z,102300.34
2023-04-18T01:47:38.893Z,102290.81
2023-04-18T01:52:44.460Z,102292.17
2023-04-18T01:57:50.989Z,102291.27
2023-04-18T02:02:58.726Z,102287.84
2023-04-18T02:08:04.442Z,102284.30
2023-04-18T02:13:10.078Z,102286.59
2023-04-18T02:18:16.062Z,102289.66
2023-04-18T02:23:21.653Z,102282.15
2023-04-18T02:28:27.459Z,102281.64
2023-04-18T02:33:33.064Z,102277.53
2023-04-18T02:38:38.750Z,102280.06
2023-04-18T02:43:44.368Z,102276.70
2023-04-18T02:48:51.677Z,102273.63
2023-04-18T02:53:58.949Z,102282.37
2023-04-18T02:59:06.931Z,102272.31
2023-04-18T03:04:23.606Z,102273.49
2023-04-18T03:09:30.908Z,102274.34
2023-04-18T03:14:38.193Z,102272.62
2023-04-18T03:19:45.004Z,102279.77
2023-04-18T03:24:51.902Z,102284.33
2023-04-18T03:29:58.028Z,102285.27
2023-04-18T03:35:04.240Z,102285.33
2023-04-18T03:40:11.077Z,102278.46
2023-04-18T03:45:21.648Z,102285.66
2023-04-18T03:50:28.205Z,102282.45
2023-04-18T03:55:34.971Z,102275.80
2023-04-18T04:00:41.176Z,102275.92
2023-04-18T04:05:47.923Z,102287.45
2023-04-18T04:10:55.341Z,102289.59
2023-04-18T04:16:01.908Z,102289.34
2023-04-18T04:21:08.136Z,102297.28
2023-04-18T04:26:26.239Z,102300.22
2023-04-18T04:31:33.462Z,102304.16
2023-04-18T04:36:41.281Z,102308.48
2023-04-18T04:41:48.096Z,102301.16
2023-04-18T04:46:54.809Z,102300.67
2023-04-18T04:52:03.170Z,102316.78
2023-04-18T04:57:09.058Z,102310.88
2023-04-18T05:02:14.703Z,102319.33
2023-04-18T05:07:20.336Z,102315.88
2023-04-18T05:12:26.864Z,102319.72
2023-04-18T05:17:32.517Z,102319.11
2023-04-18T05:22:38.235Z,102328.86
2023-04-18T05:27:44.717Z,102322.25
2023-04-18T05:32:50.482Z,102328.52
2023-04-18T05:37:56.148Z,102326.61
2023-04-18T05:43:02.233Z,102322.28
2023-04-18T05:48:07.901Z,102323.48
2023-04-18T05:53:13.732Z,102325.01
2023-04-18T05:58:19.367Z,102323.88
2023-04-18T06:03:25.106Z,102329.67
2023-04-18T06:08:30.976Z,102330.20
2023-04-18T06:13:37.504Z,102333.40
2023-04-18T06:18:43.119Z,102341.47
2023-04-18T06:23:49.630Z,102333.16
2023-04-18T06:28:55.076Z,102334.69
2023-04-18T06:34:00.609Z,102338.96
2023-04-18T06:39:06.419Z,102333.77
2023-04-18T06:44:12.021Z,102332.52
2023-04-18T06:49:17.673Z,102337.48
2023-04-18T06:54:23.344Z,102339.86
2023-04-18T06:59:29.226Z,102337.39
2023-04-18T07:04:35.236Z,102339.19
2023-04-18T07:09:40.753Z,102336.63
2023-04-18T07:14:46.220Z,102340.94
2023-04-18T07:19:51.690Z,102334.83
2023-04-18T07:24:57.117Z,102340.14
2023-04-18T07:30:02.892Z,102339.91
2023-04-18T07:35:08.502Z,102343.95
2023-04-18T07:40:14.665Z,102344.24
2023-04-18T07:45:20.254Z,102345.27
2023-04-18T07:50:26.982Z,102352.78
2023-04-18T07:55:32.981Z,102355.22
2023-04-18T08:00:39.831Z,102351.61
2023-04-18T08:05:45.298Z,102349.61
2023-04-18T08:10:50.987Z,102357.80
2023-04-18T08:15:56.469Z,102362.68
2023-04-18T08:21:02.089Z,102358.89
2023-04-18T08:26:07.618Z,102356.42
2023-04-18T08:31:17.264Z,102354.20
2023-04-18T08:36:22.983Z,102357.08
2023-04-18T08:41:30.879Z,102354.98
2023-04-18T08:46:39.564Z,102366.52
2023-04-18T08:51:47.507Z,102366.27
2023-04-18T08:57:08.817Z,102363.68
2023-04-18T09:02:15.711Z,102362.72
2023-04-18T09:07:31.428Z,102360.25
2023-04-18T09:12:47.232Z,102364.68
2023-04-18T09:17:54.437Z,102366.20
2023-04-18T09:29:06.369Z,102357.33
2023-04-18T09:34:16.684Z,102352.85
2023-04-18T09:39:28.843Z,102359.14
2023-04-18T09:44:34.454Z,102338.05
2023-04-18T09:49:40.053Z,102344.77
2023-04-18T09:54:48.225Z,102339.09
2023-04-18T10:00:16.279Z,102345.17
2023-04-18T10:05:24.076Z,102342.76
2023-04-18T10:10:30.419Z,102332.05
2023-04-18T10:15:36.336Z,102326.25
2023-04-18T10:20:42.983Z,102326.55
2023-04-18T10:25:52.092Z,102329.18
2023-04-18T10:31:05.860Z,102312.04
2023-04-18T10:36:15.097Z,102323.72
2023-04-18T10:41:26.254Z,102319.98
2023-04-18T10:46:32.945Z,102315.34
2023-04-18T10:51:39.812Z,102316.41
2023-04-18T10:56:53.555Z,102315.73
2023-04-18T11:02:02.073Z,102315.50
2023-04-18T11:07:07.703Z,102314.19
2023-04-18T11:12:34.832Z,102304.03
2023-04-18T11:17:50.712Z,102306.61
2023-04-18T11:23:03.495Z,102311.17
2023-04-18T11:28:49.894Z,102305.42
2023-04-18T11:33:59.890Z,102307.53
2023-04-18T11:39:12.190Z,102300.02
2023-04-18T11:44:25.911Z,102299.12
2023-04-18T11:49:42.205Z,102292.98
2023-04-18T11:55:13.767Z,102295.48
2023-04-18T12:00:22.364Z,102293.66
2023-04-18T12:05:30.307Z,102292.14
2023-04-18T12:10:44.337Z,102306.88
2023-04-18T12:15:49.998Z,102296.74
2023-04-18T12:21:00.340Z,102293.96
2023-04-18T12:26:18.333Z,102294.58
2023-04-18T12:31:25.473Z,102292.07
2023-04-18T12:36:31.014Z,102286.43
2023-04-18T12:41:36.752Z,102286.74
2023-04-18T12:46:42.312Z,102286.46
2023-04-18T12:51:47.872Z,102289.11
2023-04-18T12:56:55.019Z,102289.12
2023-04-18T13:20:01.011Z,102282.75
2023-04-18T13:25:08.347Z,102278.86
2023-04-18T13:30:15.241Z,102282.55
2023-04-18T13:35:20.854Z,102278.25
2023-04-18T13:40:26.642Z,102283.66
2023-04-18T13:45:32.222Z,102277.13
2023-04-18T13:50:37.682Z,102295.80
2023-04-18T13:55:43.233Z,102286.17
2023-04-18T14:00:48.719Z,102282.13
2023-04-18T14:05:54.332Z,102277.66
2023-04-18T14:10:59.892Z,102285.80
2023-04-18T14:16:07.632Z,102277.11
2023-04-18T14:21:13.340Z,102283.98
2023-04-18T14:26:20.555Z,102269.27
2023-04-18T14:31:27.699Z,102282.82
2023-04-18T14:36:33.395Z,102278.89
2023-04-18T14:41:38.952Z,102285.47
2023-04-18T14:46:44.785Z,102277.91
2023-04-18T14:51:50.260Z,102288.20
2023-04-18T14:56:56.498Z,102289.64
2023-04-18T15:02:02.411Z,102278.05
2023-04-18T15:07:07.988Z,102301.65
2023-04-18T15:12:46.814Z,102286.42
2023-04-18T15:24:00.643Z,102283.58
2023-04-18T15:29:06.268Z,102283.41
2023-04-18T15:40:25.259Z,102289.62
2023-04-18T15:45:30.906Z,102291.50
2023-04-18T15:50:36.627Z,102296.39
2023-04-18T15:56:01.006Z,102297.03
2023-04-18T16:01:07.791Z,102297.92
2023-04-18T16:06:15.006Z,102295.38
2023-04-18T16:11:21.941Z,102299.72
2023-04-18T16:16:28.587Z,102302.13
2023-04-18T16:21:34.147Z,102303.47
2023-04-18T16:26:39.573Z,102310.72
2023-04-18T16:31:45.116Z,102307.77
2023-04-18T16:42:35.227Z,102302.97
2023-04-18T16:47:40.821Z,102307.30
2023-04-18T16:52:46.456Z,102312.90
2023-04-18T16:57:52.486Z,102314.69
2023-04-18T17:02:58.385Z,102325.80
2023-04-18T17:08:04.234Z,102326.58
2023-04-18T17:13:09.749Z,102328.44
2023-04-18T17:18:15.209Z,102338.65
2023-04-18T17:23:21.829Z,102339.74
2023-04-18T17:28:27.343Z,102329.81
2023-04-18T17:33:33.140Z,102337.57
2023-04-18T17:38:38.807Z,102341.64
2023-04-18T17:43:45.182Z,102344.03
2023-04-18T17:48:50.742Z,102343.68
2023-04-18T17:53:57.624Z,102350.59
2023-04-18T17:59:03.269Z,102357.76
2023-04-18T18:04:08.802Z,102360.06
2023-04-18T18:09:14.446Z,102360.13
2023-04-18T18:14:20.409Z,102359.66
2023-04-18T18:19:26.183Z,102358.14
2023-04-18T18:24:31.613Z,102360.62
2023-04-18T18:29:37.130Z,102365.27
2023-04-18T18:34:43.636Z,102364.50
2023-04-18T18:39:49.156Z,102365.51
2023-04-18T18:44:54.746Z,102364.54
2023-04-18T18:50:00.389Z,102365.27
2023-04-18T18:55:06.306Z,102364.12
2023-04-18T19:00:13.509Z,102367.53
2023-04-18T19:05:19.066Z,102370.31
2023-04-18T19:10:24.575Z,102375.14
2023-04-18T19:15:31.004Z,102377.67
2023-04-18T19:20:38.092Z,102382.34
2023-04-18T19:25:44.996Z,102391.05
2023-04-18T19:30:51.068Z,102389.77
2023-04-18T19:35:57.158Z,102400.45
2023-04-18T19:41:02.840Z,102406.92
2023-04-18T19:46:08.472Z,102408.09
2023-04-18T19:51:13.953Z,102400.20
2023-04-18T19:56:19.578Z,102404.66
2023-04-18T20:01:25.990Z,102415.35
2023-04-18T20:06:31.620Z,102412.52
2023-04-18T20:11:37.133Z,102415.25
2023-04-18T20:16:45.377Z,102416.47
2023-04-18T20:21:51.138Z,102413.86
2023-04-18T20:26:57.283Z,102429.82
2023-04-18T20:32:03.383Z,102423.93
2023-04-18T20:37:10.185Z,102421.77
2023-04-18T20:42:15.922Z,102431.84
2023-04-18T20:47:21.529Z,102423.22
2023-04-18T20:52:27.121Z,102419.94
2023-04-18T20:57:32.638Z,102423.24
2023-04-18T21:02:38.407Z,102427.88
2023-04-18T21:07:45.768Z,102425.19
2023-04-18T21:12:51.529Z,102419.13
2023-04-18T21:17:57.559Z,102424.80
2023-04-18T21:23:03.319Z,102432.00
2023-04-18T21:28:09.182Z,102435.16
2023-04-18T21:33:15.106Z,102432.50
2023-04-18T21:38:22.361Z,102429.91
2023-04-18T21:43:27.858Z,102427.63
2023-04-18T21:48:33.358Z,102421.55
2023-04-18T21:53:42.867Z,102418.58
2023-04-18T21:58:48.446Z,102415.69
2023-04-18T22:03:54.058Z,102412.93
2023-04-18T22:09:00.925Z,102408.99
2023-04-18T22:14:06.473Z,102407.75
2023-04-18T22:19:12.667Z,102400.75
2023-04-18T22:24:19.747Z,102398.73
2023-04-18T22:29:25.297Z,102402.33
2023-04-18T22:34:31.068Z,102396.80
2023-04-18T22:39:36.560Z,102397.41
2023-04-18T22:44:42.051Z,102394.27
2023-04-18T22:49:47.574Z,102390.78
2023-04-18T22:54:56.511Z,102378.03
2023-04-18T23:00:02.094Z,102378.89
2023-04-18T23:05:09.282Z,102375.84
2023-04-18T23:10:14.731Z,102366.23
2023-04-18T23:15:22.225Z,102360.47
2023-04-18T23:20:27.703Z,102352.92
2023-04-18T23:25:36.025Z,102353.39
2023-04-18T23:30:41.617Z,102348.95
2023-04-18T23:35:47.044Z,102341.95
2023-04-18T23:40:52.595Z,102333.22
2023-04-18T23:45:58.132Z,102325.76
2023-04-18T23:51:03.562Z,102320.45
2023-04-18T23:56:09.132Z,102326.19
